createdAt,value
2018-04-23T04:00:54.458Z,29.60
2018-04-23T04:03:21.304Z,26.77
2018-04-23T04:05:48.123Z,31.77
2018-04-23T04:08:14.908Z,32.10
2018-04-23T04:10:41.694Z,33.37
2018-04-23T04:13:14.133Z,33.23
2018-04-23T04:15:46.700Z,32.30
2018-04-23T04:18:28.272Z,34.10
2018-04-23T04:20:55.049Z,34.57
2018-04-23T04:23:21.833Z,36.47
2018-04-23T04:25:48.592Z,34.40
2018-04-23T04:28:15.391Z,35.07
2018-04-23T04:30:42.180Z,34.57
2018-04-23T04:33:08.986Z,33.77
2018-04-23T04:35:35.821Z,37.37
2018-04-23T04:38:02.559Z,36.30
2018-04-23T04:40:29.309Z,35.27
2018-04-23T04:42:56.092Z,34.70
2018-04-23T04:45:22.892Z,31.53
2018-04-23T04:47:49.672Z,33.77
2018-04-23T04:50:16.425Z,35.57
2018-04-23T04:52:43.178Z,33.93
2018-04-23T04:55:09.985Z,31.10
2018-04-23T04:57:36.752Z,31.80
2018-04-23T05:00:03.538Z,32.47
2018-04-23T05:02:30.330Z,32.33
2018-04-23T05:04:57.956Z,32.63
2018-04-23T05:07:24.817Z,29.43
2018-04-23T05:09:51.617Z,31.07
2018-04-23T05:12:18.368Z,29.93
2018-04-23T05:14:45.138Z,31.43
2018-04-23T05:17:11.914Z,26.33
2018-04-23T05:19:38.702Z,29.90
2018-04-23T05:22:05.470Z,31.20
2018-04-23T05:24:32.245Z,28.63
2018-04-23T05:26:59.036Z,30.40
2018-04-23T05:29:25.826Z,26.97
2018-04-23T05:31:52.659Z,29.00
2018-04-23T05:34:19.452Z,22.97
2018-04-23T05:36:46.216Z,25.90
2018-04-23T05:39:12.997Z,24.57
2018-04-23T05:41:39.765Z,16.77
2018-04-23T05:44:07.209Z,26.60
2018-04-23T05:46:33.984Z,24.90
2018-04-23T05:49:01.016Z,27.30
2018-04-23T05:51:27.788Z,21.27
2018-04-23T05:53:54.705Z,26.60
2018-04-23T05:56:21.491Z,22.73
2018-04-23T05:58:48.290Z,24.87
2018-04-23T06:01:15.040Z,29.40
2018-04-23T06:03:41.829Z,28.87
2018-04-23T06:06:08.609Z,29.63
2018-04-23T06:08:35.399Z,27.87
2018-04-23T06:11:02.196Z,27.43
2018-04-23T06:13:28.977Z,27.17
2018-04-23T06:15:55.745Z,25.27
2018-04-23T06:18:22.502Z,24.90
2018-04-23T06:20:49.306Z,27.73
2018-04-23T06:23:16.061Z,29.83
2018-04-23T06:25:43.592Z,28.80
2018-04-23T06:28:10.426Z,29.77
2018-04-23T06:30:37.199Z,29.20
2018-04-23T06:33:04.024Z,28.13
2018-04-23T06:35:30.844Z,18.73
2018-04-23T06:37:57.642Z,27.90
2018-04-23T06:40:24.800Z,29.40
2018-04-23T06:42:51.658Z,26.67
2018-04-23T06:45:18.483Z,29.20
2018-04-23T06:47:45.359Z,29.27
2018-04-23T06:50:12.146Z,29.07
2018-04-23T06:52:38.968Z,16.97
2018-04-23T06:55:05.729Z,31.53
2018-04-23T06:57:32.612Z,32.43
2018-04-23T06:59:59.405Z,34.30
2018-04-23T07:02:26.252Z,30.70
2018-04-23T07:04:53.080Z,21.50
2018-04-23T07:07:20.137Z,25.07
2018-04-23T07:09:46.941Z,24.20
2018-04-23T07:12:13.746Z,26.00
2018-04-23T07:14:40.543Z,29.77
2018-04-23T07:17:07.354Z,30.07
2018-04-23T07:19:34.163Z,27.43
2018-04-23T07:22:00.977Z,15.47
2018-04-23T07:24:27.797Z,20.13
2018-04-23T07:26:54.593Z,30.00
2018-04-23T07:29:21.423Z,27.30
2018-04-23T07:31:48.609Z,27.40
2018-04-23T07:34:15.498Z,19.33
2018-04-23T07:36:42.304Z,25.83
2018-04-23T07:39:09.092Z,21.47
2018-04-23T07:41:36.254Z,24.27
2018-04-23T07:44:03.045Z,23.27
2018-04-23T07:46:29.842Z,24.90
2018-04-23T07:48:56.617Z,20.80
2018-04-23T07:51:23.406Z,22.17
2018-04-23T07:53:50.182Z,10.37
2018-04-23T07:56:16.952Z,21.20
2018-04-23T07:58:43.801Z,18.20
2018-04-23T08:01:10.642Z,21.63
2018-04-23T08:03:37.455Z,16.63
2018-04-23T08:06:04.249Z,21.40
2018-04-23T08:08:31.025Z,20.87
2018-04-23T08:10:57.817Z,18.93
2018-04-23T08:13:24.587Z,20.23
2018-04-23T08:15:51.416Z,19.40
2018-04-23T08:18:18.213Z,14.00
2018-04-23T08:20:44.996Z,16.80
2018-04-23T08:23:11.825Z,17.23
2018-04-23T08:25:38.598Z,17.10
2018-04-23T08:28:05.411Z,15.70
2018-04-23T08:30:32.513Z,18.03
2018-04-23T08:32:59.289Z,17.20
2018-04-23T08:35:26.115Z,9.73
2018-04-23T08:37:52.903Z,12.20
2018-04-23T08:40:19.668Z,11.37
2018-04-23T08:42:46.458Z,10.50
2018-04-23T08:45:13.222Z,11.57
2018-04-23T08:47:41.683Z,11.53
2018-04-23T08:50:08.449Z,11.07
2018-04-23T08:52:35.270Z,11.43
2018-04-23T08:55:02.077Z,9.60
2018-04-23T08:57:28.857Z,8.53
2018-04-23T08:59:55.718Z,8.40
2018-04-23T09:02:22.498Z,8.20
2018-04-23T09:04:49.289Z,8.27
2018-04-23T09:07:16.069Z,8.30
2018-04-23T09:09:42.841Z,8.70
2018-04-23T09:12:09.658Z,8.53
2018-04-23T09:14:36.862Z,6.97
2018-04-23T09:17:03.623Z,7.00
2018-04-23T09:19:30.395Z,6.33
2018-04-23T09:21:57.171Z,5.07
2018-04-23T09:24:23.996Z,4.87
2018-04-23T09:26:50.759Z,5.00
2018-04-23T09:29:17.521Z,3.83
2018-04-23T09:31:44.292Z,4.40
2018-04-23T09:34:11.128Z,3.50
2018-04-23T09:36:38.188Z,3.70
2018-04-23T09:39:06.904Z,3.40
2018-04-23T09:41:33.713Z,5.00
2018-04-23T09:44:00.486Z,4.20
2018-04-23T09:46:27.264Z,3.93
2018-04-23T09:48:54.065Z,3.30
2018-04-23T09:51:20.861Z,3.53
2018-04-23T09:53:47.654Z,2.90
2018-04-23T09:56:14.624Z,1.73
2018-04-23T09:58:41.404Z,2.60
2018-04-23T10:01:13.958Z,2.30
2018-04-23T10:03:41.601Z,2.70
2018-04-23T10:06:08.418Z,2.17
2018-04-23T10:08:35.208Z,3.00
2018-04-23T10:11:01.975Z,3.33
2018-04-23T10:13:28.765Z,2.30
2018-04-23T10:15:55.517Z,2.60
2018-04-23T10:18:22.301Z,2.90
2018-04-23T10:20:49.127Z,3.33
2018-04-23T10:23:15.939Z,2.73
2018-04-23T10:25:42.768Z,2.90
2018-04-23T10:28:09.544Z,2.77
2018-04-23T10:30:36.311Z,4.10
2018-04-23T10:33:03.142Z,3.93
2018-04-23T10:35:29.920Z,4.13
2018-04-23T10:37:56.718Z,3.33
2018-04-23T10:40:23.548Z,3.60
2018-04-23T10:42:50.368Z,4.17
2018-04-23T10:45:17.126Z,3.53
2018-04-23T10:47:43.944Z,4.50
2018-04-23T10:50:10.742Z,2.87
2018-04-23T10:52:37.562Z,3.23
2018-04-23T10:55:04.389Z,5.20
2018-04-23T10:57:31.178Z,4.10
2018-04-23T10:59:57.975Z,5.50
2018-04-23T11:02:24.773Z,4.07
2018-04-23T11:04:51.807Z,5.17
2018-04-23T11:07:18.601Z,3.73
2018-04-23T11:09:45.424Z,4.90
2018-04-23T11:12:12.205Z,1.63
2018-04-23T11:14:38.970Z,3.50
2018-04-23T11:17:05.741Z,3.60
2018-04-23T11:19:32.789Z,3.23
2018-04-23T11:21:59.862Z,2.57
2018-04-23T11:24:26.655Z,2.30
2018-04-23T11:26:53.544Z,2.20
2018-04-23T11:29:20.378Z,1.93
2018-04-23T11:31:47.189Z,1.90
2018-04-23T11:34:13.986Z,0.60
2018-04-23T11:36:40.770Z,1.60
2018-04-23T11:39:07.881Z,1.70
2018-04-23T11:41:34.736Z,2.40
2018-04-23T11:44:01.525Z,1.90
2018-04-23T11:46:28.337Z,2.80
2018-04-23T11:48:55.159Z,2.37
2018-04-23T11:51:21.942Z,3.13
2018-04-23T11:53:48.771Z,1.97
2018-04-23T11:56:15.563Z,2.80
2018-04-23T11:58:42.334Z,2.80
2018-04-23T12:01:09.082Z,2.97
2018-04-23T12:03:35.847Z,2.70
2018-04-23T12:06:02.665Z,2.73
2018-04-23T12:08:29.459Z,2.67
2018-04-23T12:10:56.247Z,2.77
2018-04-23T12:13:23.024Z,3.10
2018-04-23T12:15:49.841Z,3.10
2018-04-23T12:18:16.754Z,3.23
2018-04-23T12:20:43.537Z,2.30
2018-04-23T12:23:10.323Z,2.33
2018-04-23T12:25:37.126Z,3.27
2018-04-23T12:28:03.894Z,3.47
2018-04-23T12:30:30.704Z,3.23
2018-04-23T12:32:57.472Z,3.47
2018-04-23T12:35:24.289Z,4.83
2018-04-23T12:37:51.057Z,2.43
2018-04-23T12:40:17.865Z,3.60
2018-04-23T12:42:44.665Z,1.40
2018-04-23T12:45:11.452Z,3.33
2018-04-23T12:47:38.222Z,3.93
2018-04-23T12:50:05.001Z,3.23
2018-04-23T12:52:31.767Z,3.40
2018-04-23T12:54:58.582Z,2.17
2018-04-23T12:57:25.372Z,3.30
2018-04-23T12:59:52.164Z,3.73
2018-04-23T13:02:18.971Z,4.40
2018-04-23T13:04:46.506Z,4.23
2018-04-23T13:07:13.307Z,4.00
2018-04-23T13:09:40.093Z,4.00
2018-04-23T13:12:06.869Z,4.00
2018-04-23T13:14:33.665Z,3.27
2018-04-23T13:17:00.447Z,3.40
2018-04-23T13:19:27.292Z,3.37
2018-04-23T13:21:54.099Z,3.40
2018-04-23T13:24:21.035Z,3.67
2018-04-23T13:26:47.810Z,3.93
2018-04-23T13:29:14.585Z,3.60
2018-04-23T13:31:41.429Z,3.10
2018-04-23T13:34:08.232Z,3.03
2018-04-23T13:36:35.010Z,3.90
2018-04-23T13:39:01.796Z,2.67
2018-04-23T13:41:28.563Z,2.10
2018-04-23T13:43:55.411Z,1.60
2018-04-23T13:46:22.201Z,1.40
2018-04-23T13:48:49.331Z,1.13
2018-04-23T13:51:16.131Z,1.40
2018-04-23T13:53:42.876Z,1.53
2018-04-23T13:56:09.723Z,1.37
2018-04-23T13:58:36.590Z,1.30
2018-04-23T14:01:03.373Z,1.20
2018-04-23T14:03:30.147Z,1.20
2018-04-23T14:05:56.929Z,1.57
2018-04-23T14:08:23.726Z,2.03
2018-04-23T14:10:51.386Z,1.93
2018-04-23T14:13:18.159Z,2.00
2018-04-23T14:15:44.928Z,1.57
2018-04-23T14:18:11.754Z,1.30
2018-04-23T14:20:39.281Z,2.00
2018-04-23T14:23:06.133Z,1.93
2018-04-23T14:25:32.936Z,1.27
2018-04-23T14:28:00.142Z,1.57
2018-04-23T14:30:27.401Z,1.50
2018-04-23T14:32:54.266Z,1.90
2018-04-23T14:35:21.058Z,1.60
2018-04-23T14:37:47.868Z,1.77
2018-04-23T14:40:14.695Z,1.77
2018-04-23T14:42:41.504Z,1.10
2018-04-23T14:45:08.310Z,1.40
2018-04-23T14:47:35.100Z,1.07
2018-04-23T14:50:01.900Z,1.07
2018-04-23T14:52:28.721Z,0.77
2018-04-23T14:54:55.893Z,1.27
2018-04-23T14:57:22.785Z,1.00
2018-04-23T14:59:49.556Z,0.77
2018-04-23T15:02:16.326Z,1.20
2018-04-23T15:04:43.103Z,1.20
2018-04-23T15:07:09.868Z,0.80
2018-04-23T15:09:36.691Z,1.10
2018-04-23T15:12:03.553Z,1.30
2018-04-23T15:14:30.338Z,1.30
2018-04-23T15:16:57.102Z,1.13
2018-04-23T15:19:23.861Z,0.80
2018-04-23T15:21:50.686Z,1.30
2018-04-23T15:24:19.386Z,1.60
2018-04-23T15:26:47.012Z,1.30
2018-04-23T15:29:13.968Z,1.30
2018-04-23T15:31:41.007Z,1.27
2018-04-23T15:34:07.858Z,0.90
2018-04-23T15:36:34.757Z,1.50
2018-04-23T15:39:03.381Z,1.60
2018-04-23T15:41:30.153Z,1.57
2018-04-23T15:43:56.995Z,2.30
2018-04-23T15:46:23.885Z,2.70
2018-04-23T15:48:50.664Z,1.97
2018-04-23T15:51:17.604Z,1.93
2018-04-23T15:53:44.471Z,1.33
2018-04-23T15:56:11.227Z,1.97
2018-04-23T15:58:38.683Z,1.30
2018-04-23T16:01:05.693Z,2.00
2018-04-23T16:03:32.779Z,2.10
2018-04-23T16:05:59.558Z,2.13
2018-04-23T16:08:26.371Z,2.90
2018-04-23T16:10:53.184Z,2.63
2018-04-23T16:13:23.870Z,2.10
2018-04-23T16:15:50.697Z,2.73
2018-04-23T16:18:17.966Z,2.33
2018-04-23T16:20:45.114Z,1.50
2018-04-23T16:23:12.664Z,1.60
2018-04-23T16:25:40.089Z,1.30
2018-04-23T16:28:07.261Z,2.37
2018-04-23T16:30:34.062Z,1.77
2018-04-23T16:33:00.837Z,1.90
2018-04-23T16:35:27.697Z,2.00
2018-04-23T16:37:54.500Z,2.10
2018-04-23T16:40:21.327Z,1.77
2018-04-23T16:42:48.367Z,1.77
2018-04-23T16:45:15.680Z,1.30
2018-04-23T16:47:43.141Z,2.03
2018-04-23T16:50:09.921Z,2.10
2018-04-23T16:52:36.704Z,1.73
2018-04-23T16:55:03.786Z,2.00
2018-04-23T16:57:30.555Z,0.57
2018-04-23T16:59:57.373Z,2.20
2018-04-23T17:02:24.202Z,1.50
2018-04-23T17:04:51.015Z,2.17
2018-04-23T17:07:17.821Z,2.60
2018-04-23T17:09:44.623Z,1.53
2018-04-23T17:12:11.452Z,1.80
2018-04-23T17:14:38.224Z,1.80
2018-04-23T17:17:05.082Z,0.93
2018-04-23T17:19:32.123Z,2.00
2018-04-23T17:21:58.915Z,1.37
2018-04-23T17:24:25.771Z,1.50
2018-04-23T17:26:52.542Z,1.37
2018-04-23T17:29:19.344Z,1.20
2018-04-23T17:31:46.362Z,0.97
2018-04-23T17:34:13.128Z,1.53
2018-04-23T17:36:40.013Z,1.20
2018-04-23T17:39:06.805Z,2.00
2018-04-23T17:41:33.593Z,1.20
2018-04-23T17:44:00.400Z,1.20
2018-04-23T17:46:27.178Z,2.20
2018-04-23T17:48:54.002Z,1.73
2018-04-23T17:51:20.762Z,1.63
2018-04-23T17:53:48.282Z,2.00
2018-04-23T17:56:15.040Z,2.93
2018-04-23T17:58:41.813Z,1.93
2018-04-23T18:01:08.655Z,2.37
2018-04-23T18:03:35.430Z,1.70
2018-04-23T18:06:02.250Z,2.27
2018-04-23T18:08:29.026Z,1.10
2018-04-23T18:10:55.845Z,3.30
2018-04-23T18:13:22.703Z,2.40
2018-04-23T18:15:49.533Z,2.23
2018-04-23T18:18:16.322Z,2.43
2018-04-23T18:20:43.107Z,2.20
2018-04-23T18:23:09.918Z,3.13
2018-04-23T18:25:36.766Z,3.33
2018-04-23T18:28:03.613Z,3.00
2018-04-23T18:30:30.499Z,3.73
2018-04-23T18:32:58.074Z,2.20
2018-04-23T18:35:24.875Z,3.23
2018-04-23T18:37:51.926Z,3.37
2018-04-23T18:40:18.722Z,2.90
2018-04-23T18:42:45.506Z,3.57
2018-04-23T18:45:12.271Z,2.87
2018-04-23T18:47:39.102Z,3.37
2018-04-23T18:50:05.912Z,2.87
2018-04-23T18:52:32.712Z,3.57
2018-04-23T18:54:59.476Z,3.50
2018-04-23T18:57:26.351Z,2.13
2018-04-23T18:59:53.166Z,4.37
2018-04-23T19:02:20.004Z,4.57
2018-04-23T19:04:47.201Z,3.97
2018-04-23T19:07:14.404Z,3.67
2018-04-23T19:09:41.220Z,3.10
2018-04-23T19:12:08.530Z,3.60
2018-04-23T19:14:35.374Z,3.30
2018-04-23T19:17:02.275Z,2.97
2018-04-23T19:19:29.118Z,3.60
2018-04-23T19:21:55.931Z,3.93
2018-04-23T19:24:23.918Z,3.40
2018-04-23T19:26:50.815Z,4.17
2018-04-23T19:29:17.727Z,3.60
2018-04-23T19:31:44.633Z,4.10
2018-04-23T19:34:11.472Z,4.30
2018-04-23T19:36:38.313Z,4.40
2018-04-23T19:39:05.984Z,2.87
2018-04-23T19:41:32.860Z,4.90
2018-04-23T19:43:59.687Z,5.07
2018-04-23T19:46:26.487Z,4.97
2018-04-23T19:48:53.422Z,5.40
2018-04-23T19:51:20.258Z,3.93
2018-04-23T19:53:47.060Z,4.63
2018-04-23T19:56:13.864Z,4.63
2018-04-23T19:58:40.675Z,3.57
2018-04-23T20:01:07.513Z,5.93
2018-04-23T20:03:34.361Z,4.03
2018-04-23T20:06:01.201Z,5.03
2018-04-23T20:08:27.970Z,5.10
2018-04-23T20:10:54.772Z,5.03
2018-04-23T20:13:21.547Z,6.03
2018-04-23T20:15:48.724Z,5.23
2018-04-23T20:18:15.524Z,7.13
2018-04-23T20:20:42.562Z,5.00
2018-04-23T20:23:09.386Z,5.43
2018-04-23T20:25:36.177Z,6.57
2018-04-23T20:28:03.143Z,5.50
2018-04-23T20:30:29.945Z,6.13
2018-04-23T20:32:57.049Z,5.53
2018-04-23T20:35:23.855Z,5.60
2018-04-23T20:37:50.640Z,5.83
2018-04-23T20:40:17.462Z,5.77
2018-04-23T20:42:44.267Z,5.00
2018-04-23T20:45:11.057Z,5.43
2018-04-23T20:47:37.859Z,5.67
2018-04-23T20:50:04.707Z,7.30
2018-04-23T20:52:31.532Z,5.97
2018-04-23T20:54:58.662Z,3.90
2018-04-23T20:57:25.558Z,5.93
2018-04-23T20:59:52.347Z,5.20
2018-04-23T21:02:19.137Z,5.70
2018-04-23T21:04:45.972Z,3.73
2018-04-23T21:07:12.801Z,5.10
2018-04-23T21:09:39.620Z,5.13
2018-04-23T21:12:06.400Z,5.80
2018-04-23T21:14:33.246Z,5.60
2018-04-23T21:17:00.112Z,4.87
2018-04-23T21:19:26.904Z,5.30
2018-04-23T21:21:53.685Z,6.13
2018-04-23T21:24:20.556Z,5.13
2018-04-23T21:26:47.390Z,5.17
2018-04-23T21:29:14.192Z,4.07
2018-04-23T21:31:41.703Z,5.10
2018-04-23T21:34:08.521Z,4.80
2018-04-23T21:36:35.340Z,5.97
2018-04-23T21:39:02.143Z,5.87
2018-04-23T21:41:28.919Z,5.17
2018-04-23T21:43:55.684Z,5.10
2018-04-23T21:46:22.466Z,5.07
2018-04-23T21:48:49.260Z,6.50
2018-04-23T21:51:16.814Z,5.13
2018-04-23T21:53:43.609Z,5.20
2018-04-23T21:56:10.366Z,5.00
2018-04-23T21:58:37.137Z,5.53
2018-04-23T22:01:03.958Z,6.40
2018-04-23T22:03:30.816Z,5.30
2018-04-23T22:05:57.621Z,5.33
2018-04-23T22:08:24.410Z,6.60
2018-04-23T22:10:51.195Z,5.60
2018-04-23T22:13:18.019Z,5.10
2018-04-23T22:15:44.809Z,4.43
2018-04-23T22:18:11.641Z,5.57
2018-04-23T22:20:38.417Z,6.10
2018-04-23T22:23:06.155Z,6.20
2018-04-23T22:25:33.209Z,6.13
